sensor_id;sensor_type;location;lat;lon;timestamp;pressure;altitude;pressure_sealevel;temperature;humidity
6020;BME280;3038;51.122;6.840;2023-03-01T00:01:00;102677.63;;;-0.11;70.41
6020;BME280;3038;51.122;6.840;2023-03-01T00:03:26;102675.13;;;-0.14;70.46
6020;BME280;3038;51.122;6.840;2023-03-01T00:05:52;102674.41;;;-0.20;70.52
6020;BME280;3038;51.122;6.840;2023-03-01T00:08:17;102675.97;;;-0.13;70.11
6020;BME280;3038;51.122;6.840;2023-03-01T00:10:43;102673.22;;;-0.09;70.26
6020;BME280;3038;51.122;6.840;2023-03-01T00:13:08;102673.22;;;-0.09;69.77
6020;BME280;3038;51.122;6.840;2023-03-01T00:15:38;102675.00;;;-0.11;70.07
6020;BME280;3038;51.122;6.840;2023-03-01T00:18:03;102674.88;;;-0.06;69.59
6020;BME280;3038;51.122;6.840;2023-03-01T00:20:28;102673.22;;;-0.09;69.58
6020;BME280;3038;51.122;6.840;2023-03-01T00:22:54;102674.22;;;-0.13;70.29
6020;BME280;3038;51.122;6.840;2023-03-01T00:25:19;102674.28;;;-0.16;69.99
6020;BME280;3038;51.122;6.840;2023-03-01T00:27:46;102676.09;;;-0.18;70.17
6020;BME280;3038;51.122;6.840;2023-03-01T00:30:11;102674.38;;;-0.19;70.26
6020;BME280;3038;51.122;6.840;2023-03-01T00:32:37;102660.50;;;-0.21;69.92
6020;BME280;3038;51.122;6.840;2023-03-01T00:35:03;102668.38;;;-0.22;70.40
6020;BME280;3038;51.122;6.840;2023-03-01T00:37:28;102665.84;;;-0.26;70.40
6020;BME280;3038;51.122;6.840;2023-03-01T00:39:53;102676.34;;;-0.27;70.26
6020;BME280;3038;51.122;6.840;2023-03-01T00:42:19;102664.22;;;-0.30;70.46
6020;BME280;3038;51.122;6.840;2023-03-01T00:44:44;102666.81;;;-0.28;70.40
6020;BME280;3038;51.122;6.840;2023-03-01T00:47:10;102659.84;;;-0.29;70.77
6020;BME280;3038;51.122;6.840;2023-03-01T00:49:35;102656.38;;;-0.28;70.51
6020;BME280;3038;51.122;6.840;2023-03-01T00:52:00;102651.88;;;-0.24;70.48
6020;BME280;3038;51.122;6.840;2023-03-01T00:54:26;102651.03;;;-0.25;70.14
6020;BME280;3038;51.122;6.840;2023-03-01T00:56:51;102650.28;;;-0.29;70.38
6020;BME280;3038;51.122;6.840;2023-03-01T00:59:16;102654.63;;;-0.29;70.66
6020;BME280;3038;51.122;6.840;2023-03-01T01:01:42;102655.53;;;-0.30;70.69
6020;BME280;3038;51.122;6.840;2023-03-01T01:04:09;102655.50;;;-0.29;70.39
6020;BME280;3038;51.122;6.840;2023-03-01T01:06:41;102647.81;;;-0.33;70.47
6020;BME280;3038;51.122;6.840;2023-03-01T01:09:13;102649.69;;;-0.38;70.49
6020;BME280;3038;51.122;6.840;2023-03-01T01:11:44;102642.84;;;-0.42;70.54
6020;BME280;3038;51.122;6.840;2023-03-01T01:14:09;102641.03;;;-0.40;70.92
6020;BME280;3038;51.122;6.840;2023-03-01T01:16:35;102633.31;;;-0.45;70.69
6020;BME280;3038;51.122;6.840;2023-03-01T01:19:01;102636.00;;;-0.46;71.04
6020;BME280;3038;51.122;6.840;2023-03-01T01:21:26;102634.28;;;-0.47;70.88
6020;BME280;3038;51.122;6.840;2023-03-01T01:23:52;102629.88;;;-0.45;70.41
6020;BME280;3038;51.122;6.840;2023-03-01T01:26:21;102621.13;;;-0.44;70.43
6020;BME280;3038;51.122;6.840;2023-03-01T01:28:47;102611.59;;;-0.45;70.98
6020;BME280;3038;51.122;6.840;2023-03-01T01:31:14;102619.44;;;-0.45;71.04
6020;BME280;3038;51.122;6.840;2023-03-01T01:33:39;102616.88;;;-0.48;70.70
6020;BME280;3038;51.122;6.840;2023-03-01T01:36:06;102613.47;;;-0.50;71.26
6020;BME280;3038;51.122;6.840;2023-03-01T01:38:33;102613.47;;;-0.50;71.54
6020;BME280;3038;51.122;6.840;2023-03-01T01:40:58;102606.56;;;-0.52;71.00
6020;BME280;3038;51.122;6.840;2023-03-01T01:43:30;102599.72;;;-0.56;71.64
6020;BME280;3038;51.122;6.840;2023-03-01T01:46:25;102597.22;;;-0.60;71.85
6020;BME280;3038;51.122;6.840;2023-03-01T01:48:57;102593.97;;;-0.68;72.05
6020;BME280;3038;51.122;6.840;2023-03-01T01:51:29;102596.78;;;-0.76;72.31
6020;BME280;3038;51.122;6.840;2023-03-01T01:54:07;102590.78;;;-0.80;72.37
6020;BME280;3038;51.122;6.840;2023-03-01T01:56:34;102588.25;;;-0.83;72.17
6020;BME280;3038;51.122;6.840;2023-03-01T01:59:02;102583.16;;;-0.87;72.29
6020;BME280;3038;51.122;6.840;2023-03-01T02:01:28;102576.25;;;-0.88;72.35
6020;BME280;3038;51.122;6.840;2023-03-01T02:03:53;102579.75;;;-0.89;72.76
6020;BME280;3038;51.122;6.840;2023-03-01T02:06:37;102575.44;;;-0.90;72.76
6020;BME280;3038;51.122;6.840;2023-03-01T02:09:13;102572.91;;;-0.93;72.82
6020;BME280;3038;51.122;6.840;2023-03-01T02:11:38;102569.50;;;-0.95;72.89
6020;BME280;3038;51.122;6.840;2023-03-01T02:14:05;102567.78;;;-0.96;73.37
6020;BME280;3038;51.122;6.840;2023-03-01T02:16:31;102573.06;;;-0.99;72.98
6020;BME280;3038;51.122;6.840;2023-03-01T02:18:57;102574.94;;;-1.05;73.03
6020;BME280;3038;51.122;6.840;2023-03-01T02:21:50;102571.50;;;-1.07;73.81
6020;BME280;3038;51.122;6.840;2023-03-01T02:24:53;102564.63;;;-1.09;73.51
6020;BME280;3038;51.122;6.840;2023-03-01T02:27:26;102574.28;;;-1.13;73.71
6020;BME280;3038;51.122;6.840;2023-03-01T02:29:53;102573.53;;;-1.18;73.97
6020;BME280;3038;51.122;6.840;2023-03-01T02:32:20;102589.09;;;-1.15;73.74
6020;BME280;3038;51.122;6.840;2023-03-01T02:34:52;102589.09;;;-1.15;73.91
6020;BME280;3038;51.122;6.840;2023-03-01T02:37:18;102587.41;;;-1.16;73.66
6020;BME280;3038;51.122;6.840;2023-03-01T02:39:55;102578.69;;;-1.15;73.66
6020;BME280;3038;51.122;6.840;2023-03-01T02:42:28;102566.56;;;-1.16;73.24
6020;BME280;3038;51.122;6.840;2023-03-01T02:44:56;102564.00;;;-1.19;73.17
6020;BME280;3038;51.122;6.840;2023-03-01T02:47:21;102578.84;;;-1.21;73.51
6020;BME280;3038;51.122;6.840;2023-03-01T02:49:46;102571.94;;;-1.23;73.76
6020;BME280;3038;51.122;6.840;2023-03-01T02:55:08;102571.13;;;-1.25;73.26
6020;BME280;3038;51.122;6.840;2023-03-01T02:57:35;102576.31;;;-1.24;74.11
6020;BME280;3038;51.122;6.840;2023-03-01T03:00:06;102572.78;;;-1.23;73.80
6020;BME280;3038;51.122;6.840;2023-03-01T03:02:33;102565.84;;;-1.22;73.92
6020;BME280;3038;51.122;6.840;2023-03-01T03:05:10;102563.28;;;-1.24;74.24
6020;BME280;3038;51.122;6.840;2023-03-01T03:07:38;102555.50;;;-1.25;73.87
6020;BME280;3038;51.122;6.840;2023-03-01T03:10:05;102548.59;;;-1.28;73.73
6020;BME280;3038;51.122;6.840;2023-03-01T03:12:31;102547.81;;;-1.30;73.79
6020;BME280;3038;51.122;6.840;2023-03-01T03:14:56;102557.53;;;-1.38;74.54
6020;BME280;3038;51.122;6.840;2023-03-01T03:17:22;102560.22;;;-1.41;74.71
6020;BME280;3038;51.122;6.840;2023-03-01T03:19:47;102558.50;;;-1.42;74.87
6020;BME280;3038;51.122;6.840;2023-03-01T03:22:13;102560.31;;;-1.44;74.64
6020;BME280;3038;51.122;6.840;2023-03-01T03:24:38;102557.72;;;-1.44;74.42
6020;BME280;3038;51.122;6.840;2023-03-01T03:27:05;102551.59;;;-1.43;74.86
6020;BME280;3038;51.122;6.840;2023-03-01T03:29:30;102548.94;;;-1.42;74.04
6020;BME280;3038;51.122;6.840;2023-03-01T03:31:56;102544.69;;;-1.44;74.50
6020;BME280;3038;51.122;6.840;2023-03-01T03:34:21;102544.75;;;-1.47;74.34
6020;BME280;3038;51.122;6.840;2023-03-01T03:36:46;102549.16;;;-1.49;74.47
6020;BME280;3038;51.122;6.840;2023-03-01T03:39:12;102544.91;;;-1.53;74.95
6020;BME280;3038;51.122;6.840;2023-03-01T03:41:37;102550.97;;;-1.53;75.35
6020;BME280;3038;51.122;6.840;2023-03-01T03:44:02;102544.91;;;-1.53;74.67
6020;BME280;3038;51.122;6.840;2023-03-01T03:46:28;102543.09;;;-1.51;74.67
6020;BME280;3038;51.122;6.840;2023-03-01T03:48:53;102544.75;;;-1.47;74.29
6020;BME280;3038;51.122;6.840;2023-03-01T03:51:18;102539.59;;;-1.49;75.15
6020;BME280;3038;51.122;6.840;2023-03-01T03:53:45;102543.94;;;-1.49;75.17
6020;BME280;3038;51.122;6.840;2023-03-01T03:56:11;102539.53;;;-1.47;74.94
6020;BME280;3038;51.122;6.840;2023-03-01T03:58:37;102532.53;;;-1.45;74.76
6020;BME280;3038;51.122;6.840;2023-03-01T04:01:03;102527.31;;;-1.44;74.13
6020;BME280;3038;51.122;6.840;2023-03-01T04:03:29;102522.09;;;-1.45;74.34
6020;BME280;3038;51.122;6.840;2023-03-01T04:05:57;102524.72;;;-1.45;74.00
6020;BME280;3038;51.122;6.840;2023-03-01T04:08:23;102529.97;;;-1.47;73.80
6020;BME280;3038;51.122;6.840;2023-03-01T04:10:51;102525.78;;;-1.52;73.64
6020;BME280;3038;51.122;6.840;2023-03-01T04:13:19;102524.97;;;-1.56;74.10
6020;BME280;3038;51.122;6.840;2023-03-01T04:15:48;102519.81;;;-1.58;74.00
6020;BME280;3038;51.122;6.840;2023-03-01T04:18:15;102524.97;;;-1.56;74.53
6020;BME280;3038;51.122;6.840;2023-03-01T04:20:42;102518.91;;;-1.57;74.85
6020;BME280;3038;51.122;6.840;2023-03-01T04:23:18;102508.34;;;-1.50;74.20
6020;BME280;3038;51.122;6.840;2023-03-01T04:25:52;102501.44;;;-1.51;74.17
6020;BME280;3038;51.122;6.840;2023-03-01T04:30:47;102511.09;;;-1.57;74.89
6020;BME280;3038;51.122;6.840;2023-03-01T04:33:12;102511.09;;;-1.57;74.45
6020;BME280;3038;51.122;6.840;2023-03-01T04:35:38;102506.81;;;-1.58;74.22
6020;BME280;3038;51.122;6.840;2023-03-01T04:38:05;102507.66;;;-1.57;74.66
6020;BME280;3038;51.122;6.840;2023-03-01T04:40:30;102501.66;;;-1.61;74.32
6020;BME280;3038;51.122;6.840;2023-03-01T04:42:56;102501.66;;;-1.61;74.48
6020;BME280;3038;51.122;6.840;2023-03-01T04:45:22;102506.91;;;-1.62;74.27
6020;BME280;3038;51.122;6.840;2023-03-01T04:47:47;102517.22;;;-1.58;74.16
6020;BME280;3038;51.122;6.840;2023-03-01T04:50:16;102510.31;;;-1.59;74.28
6020;BME280;3038;51.122;6.840;2023-03-01T04:52:42;102497.19;;;-1.56;74.46
6020;BME280;3038;51.122;6.840;2023-03-01T04:55:08;102497.16;;;-1.54;74.10
6020;BME280;3038;51.122;6.840;2023-03-01T04:57:34;102494.53;;;-1.52;74.32
6020;BME280;3038;51.122;6.840;2023-03-01T04:59:59;102493.66;;;-1.53;73.81
6020;BME280;3038;51.122;6.840;2023-03-01T05:02:25;102495.41;;;-1.53;73.37
6020;BME280;3038;51.122;6.840;2023-03-01T05:04:50;102491.13;;;-1.54;73.67
6020;BME280;3038;51.122;6.840;2023-03-01T05:07:16;102498.94;;;-1.54;73.98
6020;BME280;3038;51.122;6.840;2023-03-01T05:09:45;102490.22;;;-1.55;73.75
6020;BME280;3038;51.122;6.840;2023-03-01T05:12:12;102489.38;;;-1.56;73.90
6020;BME280;3038;51.122;6.840;2023-03-01T05:14:37;102489.47;;;-1.59;73.88
6020;BME280;3038;51.122;6.840;2023-03-01T05:17:03;102487.72;;;-1.60;73.94
6020;BME280;3038;51.122;6.840;2023-03-01T05:19:29;102493.00;;;-1.61;74.16
6020;BME280;3038;51.122;6.840;2023-03-01T05:21:56;102488.63;;;-1.61;74.36
6020;BME280;3038;51.122;6.840;2023-03-01T05:24:30;102485.13;;;-1.58;73.81
6020;BME280;3038;51.122;6.840;2023-03-01T05:26:56;102491.19;;;-1.58;73.62
6020;BME280;3038;51.122;6.840;2023-03-01T05:29:23;102493.78;;;-1.58;73.79
6020;BME280;3038;51.122;6.840;2023-03-01T05:31:56;102494.69;;;-1.60;73.82
6020;BME280;3038;51.122;6.840;2023-03-01T05:34:34;102494.69;;;-1.59;73.91
6020;BME280;3038;51.122;6.840;2023-03-01T05:37:01;102490.31;;;-1.58;73.97
6020;BME280;3038;51.122;6.840;2023-03-01T05:39:28;102488.63;;;-1.59;73.82
6020;BME280;3038;51.122;6.840;2023-03-01T05:41:55;102489.53;;;-1.62;73.43
6020;BME280;3038;51.122;6.840;2023-03-01T05:44:21;102487.84;;;-1.63;73.36
6020;BME280;3038;51.122;6.840;2023-03-01T05:46:46;102481.78;;;-1.63;73.23
6020;BME280;3038;51.122;6.840;2023-03-01T05:49:12;102486.13;;;-1.64;73.37
6020;BME280;3038;51.122;6.840;2023-03-01T05:51:41;102478.34;;;-1.65;73.07
6020;BME280;3038;51.122;6.840;2023-03-01T05:54:08;102479.28;;;-1.69;73.23
6020;BME280;3038;51.122;6.840;2023-03-01T05:56:34;102478.66;;;-1.77;73.45
6020;BME280;3038;51.122;6.840;2023-03-01T05:59:00;102486.47;;;-1.79;72.91
6020;BME280;3038;51.122;6.840;2023-03-01T06:01:26;102479.72;;;-1.86;73.48
6020;BME280;3038;51.122;6.840;2023-03-01T06:03:51;102483.47;;;-1.98;74.06
6020;BME280;3038;51.122;6.840;2023-03-01T06:06:16;102485.19;;;-1.98;73.97
6020;BME280;3038;51.122;6.840;2023-03-01T06:08:42;102488.84;;;-2.05;74.90
6020;BME280;3038;51.122;6.840;2023-03-01T06:11:07;102487.28;;;-2.13;75.17
6020;BME280;3038;51.122;6.840;2023-03-01T06:13:32;102478.59;;;-2.12;75.16
6020;BME280;3038;51.122;6.840;2023-03-01T06:15:58;102489.81;;;-2.10;74.82
6020;BME280;3038;51.122;6.840;2023-03-01T06:18:23;102481.97;;;-2.08;75.29
6020;BME280;3038;51.122;6.840;2023-03-01T06:20:53;102490.56;;;-2.04;74.68
6020;BME280;3038;51.122;6.840;2023-03-01T06:23:19;102487.97;;;-2.04;74.81
6020;BME280;3038;51.122;6.840;2023-03-01T06:25:44;102493.00;;;-1.97;75.08
6020;BME280;3038;51.122;6.840;2023-03-01T06:28:09;102492.88;;;-1.92;74.58
6020;BME280;3038;51.122;6.840;2023-03-01T06:30:35;102494.69;;;-1.96;74.27
6020;BME280;3038;51.122;6.840;2023-03-01T06:33:00;102490.41;;;-1.98;74.68
6020;BME280;3038;51.122;6.840;2023-03-01T06:35:28;102480.91;;;-1.99;74.33
6020;BME280;3038;51.122;6.840;2023-03-01T06:37:55;102480.91;;;-1.99;74.62
6020;BME280;3038;51.122;6.840;2023-03-01T06:40:21;102485.13;;;-1.95;74.99
6020;BME280;3038;51.122;6.840;2023-03-01T06:42:50;102488.50;;;-1.90;74.44
6020;BME280;3038;51.122;6.840;2023-03-01T06:45:16;102481.44;;;-1.85;74.55
6020;BME280;3038;51.122;6.840;2023-03-01T06:47:42;102488.28;;;-1.81;73.65
6020;BME280;3038;51.122;6.840;2023-03-01T06:50:10;102484.72;;;-1.77;73.47
6020;BME280;3038;51.122;6.840;2023-03-01T06:52:40;102475.03;;;-1.72;73.26
6020;BME280;3038;51.122;6.840;2023-03-01T06:55:06;102481.84;;;-1.66;73.15
6020;BME280;3038;51.122;6.840;2023-03-01T06:57:34;102475.78;;;-1.67;73.25
6020;BME280;3038;51.122;6.840;2023-03-01T07:00:00;102484.38;;;-1.65;72.97
6020;BME280;3038;51.122;6.840;2023-03-01T07:02:25;102477.41;;;-1.63;73.07
6020;BME280;3038;51.122;6.840;2023-03-01T07:04:51;102479.91;;;-1.60;72.88
6020;BME280;3038;51.122;6.840;2023-03-01T07:07:17;102472.91;;;-1.56;72.68
6020;BME280;3038;51.122;6.840;2023-03-01T07:09:46;102473.75;;;-1.56;72.93
6020;BME280;3038;51.122;6.840;2023-03-01T07:12:13;102470.09;;;-1.48;73.21
6020;BME280;3038;51.122;6.840;2023-03-01T07:14:38;102473.69;;;-1.52;73.44
6020;BME280;3038;51.122;6.840;2023-03-01T07:17:03;102470.28;;;-1.54;73.02
6020;BME280;3038;51.122;6.840;2023-03-01T07:19:29;102464.28;;;-1.58;73.21
6020;BME280;3038;51.122;6.840;2023-03-01T07:21:54;102462.59;;;-1.61;73.99
6020;BME280;3038;51.122;6.840;2023-03-01T07:24:21;102460.81;;;-1.59;74.11
6020;BME280;3038;51.122;6.840;2023-03-01T07:26:50;102459.69;;;-1.48;73.81
6020;BME280;3038;51.122;6.840;2023-03-01T07:29:16;102455.88;;;-1.35;73.79
6020;BME280;3038;51.122;6.840;2023-03-01T07:31:42;102453.84;;;-1.24;73.07
6020;BME280;3038;51.122;6.840;2023-03-01T07:34:10;102455.28;;;-1.14;72.60
6020;BME280;3038;51.122;6.840;2023-03-01T07:36:37;102458.56;;;-1.06;72.45
6020;BME280;3038;51.122;6.840;2023-03-01T07:39:03;102462.56;;;-0.94;72.32
6020;BME280;3038;51.122;6.840;2023-03-01T07:41:29;102463.16;;;-0.84;71.51
6020;BME280;3038;51.122;6.840;2023-03-01T07:43:55;102461.13;;;-0.74;71.70
6020;BME280;3038;51.122;6.840;2023-03-01T07:46:20;102459.09;;;-0.65;71.57
6020;BME280;3038;51.122;6.840;2023-03-01T07:48:46;102467.56;;;-0.57;71.17
6020;BME280;3038;51.122;6.840;2023-03-01T07:51:11;102464.72;;;-0.49;71.05
6020;BME280;3038;51.122;6.840;2023-03-01T07:53:37;102474.88;;;-0.40;70.14
6020;BME280;3038;51.122;6.840;2023-03-01T07:56:11;102474.72;;;-0.34;70.49
6020;BME280;3038;51.122;6.840;2023-03-01T07:58:38;102470.16;;;-0.27;70.75
6020;BME280;3038;51.122;6.840;2023-03-01T08:01:05;102464.66;;;-0.18;70.09
6020;BME280;3038;51.122;6.840;2023-03-01T08:03:32;102467.97;;;-0.13;70.40
6020;BME280;3038;51.122;6.840;2023-03-01T08:05:59;102460.00;;;-0.08;70.31
6020;BME280;3038;51.122;6.840;2023-03-01T08:08:25;102465.84;;;0.00;70.16
6020;BME280;3038;51.122;6.840;2023-03-01T08:10:51;102467.28;;;0.09;70.25
6020;BME280;3038;51.122;6.840;2023-03-01T08:13:16;102454.84;;;0.17;70.07
6020;BME280;3038;51.122;6.840;2023-03-01T08:15:43;102454.53;;;0.26;69.81
6020;BME280;3038;51.122;6.840;2023-03-01T08:18:09;102452.53;;;0.34;69.13
6020;BME280;3038;51.122;6.840;2023-03-01T08:20:34;102455.84;;;0.39;68.90
6020;BME280;3038;51.122;6.840;2023-03-01T08:22:59;102450.47;;;0.44;69.23
6020;BME280;3038;51.122;6.840;2023-03-01T08:25:25;102453.50;;;0.57;69.55
6020;BME280;3038;51.122;6.840;2023-03-01T08:27:50;102451.25;;;0.71;69.12
6020;BME280;3038;51.122;6.840;2023-03-01T08:30:16;102450.84;;;0.83;68.93
6020;BME280;3038;51.122;6.840;2023-03-01T08:32:41;102455.59;;;0.97;67.16
6020;BME280;3038;51.122;6.840;2023-03-01T08:35:07;102455.19;;;1.08;66.93
6020;BME280;3038;51.122;6.840;2023-03-01T08:37:32;102452.44;;;1.11;66.42
6020;BME280;3038;51.122;6.840;2023-03-01T08:39:59;102449.38;;;1.23;65.83
6020;BME280;3038;51.122;6.840;2023-03-01T08:42:25;102450.63;;;1.36;65.47
6020;BME280;3038;51.122;6.840;2023-03-01T08:44:50;102451.66;;;1.56;64.56
6020;BME280;3038;51.122;6.840;2023-03-01T08:47:17;102446.72;;;1.70;64.15
6020;BME280;3038;51.122;6.840;2023-03-01T08:49:42;102444.41;;;1.84;64.72
6020;BME280;3038;51.122;6.840;2023-03-01T08:52:07;102440.50;;;1.94;63.64
6020;BME280;3038;51.122;6.840;2023-03-01T08:54:33;102444.94;;;2.14;62.63
6020;BME280;3038;51.122;6.840;2023-03-01T08:57:01;102443.19;;;2.35;61.83
6020;BME280;3038;51.122;6.840;2023-03-01T08:59:26;102429.31;;;2.53;60.49
6020;BME280;3038;51.122;6.840;2023-03-01T09:01:52;102433.16;;;2.65;61.35
6020;BME280;3038;51.122;6.840;2023-03-01T09:04:18;102430.00;;;2.77;60.53
6020;BME280;3038;51.122;6.840;2023-03-01T09:06:43;102437.97;;;2.95;61.40
6020;BME280;3038;51.122;6.840;2023-03-01T09:09:16;102442.81;;;3.04;60.09
6020;BME280;3038;51.122;6.840;2023-03-01T09:11:43;102431.91;;;3.13;60.61
6020;BME280;3038;51.122;6.840;2023-03-01T09:14:11;102432.34;;;3.23;60.55
6020;BME280;3038;51.122;6.840;2023-03-01T09:16:36;102429.16;;;3.35;59.22
6020;BME280;3038;51.122;6.840;2023-03-01T09:19:03;102430.75;;;3.56;57.77
6020;BME280;3038;51.122;6.840;2023-03-01T09:21:28;102434.19;;;3.58;58.38
6020;BME280;3038;51.122;6.840;2023-03-01T09:23:56;102423.09;;;3.71;58.23
6020;BME280;3038;51.122;6.840;2023-03-01T09:26:23;102430.44;;;3.81;57.60
6020;BME280;3038;51.122;6.840;2023-03-01T09:28:50;102427.75;;;3.83;56.50
6020;BME280;3038;51.122;6.840;2023-03-01T09:31:17;102423.28;;;3.85;57.42
6020;BME280;3038;51.122;6.840;2023-03-01T09:33:46;102410.16;;;4.02;57.79
6020;BME280;3038;51.122;6.840;2023-03-01T09:36:14;102403.84;;;4.06;56.47
6020;BME280;3038;51.122;6.840;2023-03-01T09:38:41;102411.41;;;4.30;56.76
6020;BME280;3038;51.122;6.840;2023-03-01T09:41:24;102398.41;;;4.44;55.88
6020;BME280;3038;51.122;6.840;2023-03-01T09:46:43;102392.97;;;4.64;54.41
6020;BME280;3038;51.122;6.840;2023-03-01T09:49:21;102388.50;;;4.82;52.82
6020;BME280;3038;51.122;6.840;2023-03-01T09:54:49;102388.03;;;5.07;53.50
6020;BME280;3038;51.122;6.840;2023-03-01T09:57:37;102395.38;;;5.18;51.38
6020;BME280;3038;51.122;6.840;2023-03-01T10:00:23;102395.97;;;5.23;50.15
6020;BME280;3038;51.122;6.840;2023-03-01T10:02:56;102394.09;;;5.57;51.72
6020;BME280;3038;51.122;6.840;2023-03-01T10:06:31;102388.38;;;5.80;50.26
6020;BME280;3038;51.122;6.840;2023-03-01T10:11:24;102378.41;;;9.62;41.50
6020;BME280;3038;51.122;6.840;2023-03-01T10:14:09;102371.84;;;10.61;37.22
6020;BME280;3038;51.122;6.840;2023-03-01T10:16:50;102382.00;;;11.55;39.37
6020;BME280;3038;51.122;6.840;2023-03-01T10:19:40;102374.44;;;12.35;34.35
6020;BME280;3038;51.122;6.840;2023-03-01T10:24:48;102371.53;;;13.50;35.13
6020;BME280;3038;51.122;6.840;2023-03-01T10:27:23;102370.09;;;14.23;32.09
6020;BME280;3038;51.122;6.840;2023-03-01T10:30:10;102354.13;;;14.98;31.25
6020;BME280;3038;51.122;6.840;2023-03-01T10:32:37;102347.53;;;15.65;32.24
6020;BME280;3038;51.122;6.840;2023-03-01T10:35:16;102346.09;;;16.40;28.38
6020;BME280;3038;51.122;6.840;2023-03-01T10:38:05;102350.13;;;16.70;26.50
6020;BME280;3038;51.122;6.840;2023-03-01T10:40:32;102351.25;;;17.53;28.90
6020;BME280;3038;51.122;6.840;2023-03-01T10:43:03;102341.28;;;17.12;26.99
6020;BME280;3038;51.122;6.840;2023-03-01T10:50:42;102337.84;;;18.26;25.91
6020;BME280;3038;51.122;6.840;2023-03-01T10:53:21;102329.81;;;19.13;25.42
6020;BME280;3038;51.122;6.840;2023-03-01T10:55:47;102327.53;;;19.02;25.62
6020;BME280;3038;51.122;6.840;2023-03-01T10:58:22;102311.19;;;19.34;25.77
6020;BME280;3038;51.122;6.840;2023-03-01T11:00:49;102318.38;;;19.11;24.61
6020;BME280;3038;51.122;6.840;2023-03-01T11:03:25;102321.69;;;18.26;25.46
6020;BME280;3038;51.122;6.840;2023-03-01T11:05:57;102322.94;;;17.99;25.67
6020;BME280;3038;51.122;6.840;2023-03-01T11:08:43;102315.84;;;18.06;23.97
6020;BME280;3038;51.122;6.840;2023-03-01T11:13:54;102311.47;;;17.72;24.33
6020;BME280;3038;51.122;6.840;2023-03-01T11:16:47;102308.63;;;17.98;24.13
6020;BME280;3038;51.122;6.840;2023-03-01T11:19:17;102289.81;;;18.15;23.80
6020;BME280;3038;51.122;6.840;2023-03-01T11:21:57;102286.00;;;19.19;22.73
6020;BME280;3038;51.122;6.840;2023-03-01T11:24:30;102274.09;;;19.82;23.02
6020;BME280;3038;51.122;6.840;2023-03-01T11:27:01;102271.91;;;19.40;22.44
6020;BME280;3038;51.122;6.840;2023-03-01T11:29:33;102261.72;;;19.27;23.31
6020;BME280;3038;51.122;6.840;2023-03-01T11:32:03;102262.44;;;19.21;23.87
6020;BME280;3038;51.122;6.840;2023-03-01T11:34:38;102253.22;;;19.38;22.08
6020;BME280;3038;51.122;6.840;2023-03-01T11:37:13;102263.09;;;20.36;21.48
6020;BME280;3038;51.122;6.840;2023-03-01T11:42:59;102259.84;;;20.56;20.82
6020;BME280;3038;51.122;6.840;2023-03-01T11:45:35;102259.09;;;20.47;22.12
6020;BME280;3038;51.122;6.840;2023-03-01T11:50:51;102251.00;;;20.02;22.47
6020;BME280;3038;51.122;6.840;2023-03-01T11:53:51;102250.63;;;20.50;21.91
6020;BME280;3038;51.122;6.840;2023-03-01T11:56:43;102252.31;;;20.51;21.18
6020;BME280;3038;51.122;6.840;2023-03-01T12:01:55;102247.66;;;19.63;20.77
6020;BME280;3038;51.122;6.840;2023-03-01T12:07:24;102245.19;;;19.76;22.08
6020;BME280;3038;51.122;6.840;2023-03-01T12:10:16;102237.03;;;20.14;21.57
6020;BME280;3038;51.122;6.840;2023-03-01T12:15:39;102216.09;;;20.01;21.38
6020;BME280;3038;51.122;6.840;2023-03-01T12:30:04;102220.13;;;17.64;23.61
6020;BME280;3038;51.122;6.840;2023-03-01T12:33:15;102210.91;;;17.59;23.67
6020;BME280;3038;51.122;6.840;2023-03-01T12:35:58;102204.94;;;18.52;23.64
6020;BME280;3038;51.122;6.840;2023-03-01T12:47:02;102184.22;;;17.65;24.62
6020;BME280;3038;51.122;6.840;2023-03-01T12:49:38;102179.59;;;18.15;23.54
6020;BME280;3038;51.122;6.840;2023-03-01T12:54:53;102175.06;;;18.46;24.61
6020;BME280;3038;51.122;6.840;2023-03-01T12:57:23;102179.22;;;18.18;24.06
6020;BME280;3038;51.122;6.840;2023-03-01T13:05:46;102170.31;;;17.21;24.49
6020;BME280;3038;51.122;6.840;2023-03-01T13:08:29;102158.41;;;17.40;25.33
6020;BME280;3038;51.122;6.840;2023-03-01T13:11:16;102159.69;;;16.70;25.02
6020;BME280;3038;51.122;6.840;2023-03-01T13:13:42;102157.38;;;16.76;26.10
6020;BME280;3038;51.122;6.840;2023-03-01T13:19:06;102162.16;;;16.48;25.89
6020;BME280;3038;51.122;6.840;2023-03-01T13:21:33;102159.25;;;16.33;26.21
6020;BME280;3038;51.122;6.840;2023-03-01T13:23:59;102151.84;;;16.77;25.79
6020;BME280;3038;51.122;6.840;2023-03-01T13:26:24;102154.22;;;16.80;26.19
6020;BME280;3038;51.122;6.840;2023-03-01T13:28:56;102152.63;;;16.61;25.72
6020;BME280;3038;51.122;6.840;2023-03-01T13:33:57;102145.13;;;15.36;28.03
6020;BME280;3038;51.122;6.840;2023-03-01T13:46:50;102152.94;;;11.90;33.22
6020;BME280;3038;51.122;6.840;2023-03-01T13:49:18;102139.13;;;11.54;35.05
6020;BME280;3038;51.122;6.840;2023-03-01T13:51:49;102130.72;;;11.28;35.01
6020;BME280;3038;51.122;6.840;2023-03-01T13:54:16;102131.25;;;11.11;34.89
6020;BME280;3038;51.122;6.840;2023-03-01T13:56:44;102133.13;;;11.31;34.79
6020;BME280;3038;51.122;6.840;2023-03-01T13:59:21;102116.91;;;11.65;34.93
6020;BME280;3038;51.122;6.840;2023-03-01T14:01:55;102125.53;;;12.69;33.85
6020;BME280;3038;51.122;6.840;2023-03-01T14:06:51;102121.50;;;13.70;31.72
6020;BME280;3038;51.122;6.840;2023-03-01T14:09:23;102118.25;;;14.03;30.58
6020;BME280;3038;51.122;6.840;2023-03-01T14:12:06;102121.00;;;14.11;30.87
6020;BME280;3038;51.122;6.840;2023-03-01T14:19:46;102112.94;;;12.11;34.51
6020;BME280;3038;51.122;6.840;2023-03-01T14:25:02;102108.81;;;11.46;35.66
6020;BME280;3038;51.122;6.840;2023-03-01T14:27:33;102113.63;;;11.10;36.23
6020;BME280;3038;51.122;6.840;2023-03-01T14:30:03;102101.66;;;10.63;37.38
6020;BME280;3038;51.122;6.840;2023-03-01T14:32:31;102098.00;;;10.32;37.10
6020;BME280;3038;51.122;6.840;2023-03-01T14:34:58;102091.25;;;10.27;37.51
6020;BME280;3038;51.122;6.840;2023-03-01T14:37:29;102080.16;;;10.00;38.39
6020;BME280;3038;51.122;6.840;2023-03-01T14:39:57;102092.50;;;10.01;38.28
6020;BME280;3038;51.122;6.840;2023-03-01T14:42:25;102080.31;;;9.76;38.93
6020;BME280;3038;51.122;6.840;2023-03-01T14:44:54;102069.22;;;9.48;39.12
6020;BME280;3038;51.122;6.840;2023-03-01T14:47:46;102066.94;;;9.44;40.52
6020;BME280;3038;51.122;6.840;2023-03-01T14:52:58;102057.75;;;9.25;40.16
6020;BME280;3038;51.122;6.840;2023-03-01T14:55:36;102053.16;;;9.16;41.06
6020;BME280;3038;51.122;6.840;2023-03-01T14:58:04;102059.16;;;9.07;41.33
6020;BME280;3038;51.122;6.840;2023-03-01T15:00:31;102054.19;;;8.91;41.35